sensor_id;sensor_type;location;lat;lon;timestamp;P1;durP1;ratioP1;P2;durP2;ratioP2
18503;SDS011;9381;54.244;10.074;2022-09-21T00:02:07;3.63;;;2.67;;
18503;SDS011;9381;54.244;10.074;2022-09-21T00:07:07;4.45;;;2.55;;
18503;SDS011;9381;54.244;10.074;2022-09-21T00:12:07;4.88;;;2.30;;
18503;SDS011;9381;54.244;10.074;2022-09-21T00:17:08;3.90;;;2.40;;
18503;SDS011;9381;54.244;10.074;2022-09-21T00:22:08;5.30;;;2.20;;
18503;SDS011;9381;54.244;10.074;2022-09-21T00:27:09;3.23;;;2.50;;
18503;SDS011;9381;54.244;10.074;2022-09-21T00:32:10;4.10;;;2.40;;
18503;SDS011;9381;54.244;10.074;2022-09-21T00:37:10;2.50;;;2.30;;
18503;SDS011;9381;54.244;10.074;2022-09-21T00:42:17;8.37;;;2.50;;
18503;SDS011;9381;54.244;10.074;2022-09-21T00:47:34;2.57;;;2.37;;
18503;SDS011;9381;54.244;10.074;2022-09-21T00:52:40;3.13;;;2.27;;
18503;SDS011;9381;54.244;10.074;2022-09-21T00:57:43;2.27;;;2.03;;
18503;SDS011;9381;54.244;10.074;2022-09-21T01:02:48;4.13;;;2.00;;
18503;SDS011;9381;54.244;10.074;2022-09-21T01:07:48;3.43;;;2.37;;
18503;SDS011;9381;54.244;10.074;2022-09-21T01:13:32;3.10;;;2.37;;
18503;SDS011;9381;54.244;10.074;2022-09-21T01:18:20;2.70;;;2.50;;
18503;SDS011;9381;54.244;10.074;2022-09-21T01:29:11;2.80;;;2.47;;
18503;SDS011;9381;54.244;10.074;2022-09-21T01:34:24;2.43;;;2.10;;
18503;SDS011;9381;54.244;10.074;2022-09-21T01:39:30;3.43;;;2.77;;
18503;SDS011;9381;54.244;10.074;2022-09-21T01:44:32;4.20;;;2.47;;
18503;SDS011;9381;54.244;10.074;2022-09-21T01:49:37;2.80;;;2.13;;
18503;SDS011;9381;54.244;10.074;2022-09-21T01:54:44;5.87;;;2.93;;
18503;SDS011;9381;54.244;10.074;2022-09-21T01:59:50;3.00;;;2.43;;
18503;SDS011;9381;54.244;10.074;2022-09-21T02:04:53;3.77;;;2.60;;
18503;SDS011;9381;54.244;10.074;2022-09-21T02:09:53;3.87;;;2.87;;
18503;SDS011;9381;54.244;10.074;2022-09-21T02:14:55;6.70;;;2.60;;
18503;SDS011;9381;54.244;10.074;2022-09-21T02:20:06;2.90;;;2.40;;
18503;SDS011;9381;54.244;10.074;2022-09-21T02:30:43;2.70;;;2.33;;
18503;SDS011;9381;54.244;10.074;2022-09-21T02:35:54;2.53;;;2.27;;
18503;SDS011;9381;54.244;10.074;2022-09-21T02:41:07;3.77;;;3.10;;
18503;SDS011;9381;54.244;10.074;2022-09-21T02:46:16;3.37;;;3.07;;
18503;SDS011;9381;54.244;10.074;2022-09-21T02:51:24;4.63;;;2.87;;
18503;SDS011;9381;54.244;10.074;2022-09-21T02:56:30;3.10;;;2.53;;
18503;SDS011;9381;54.244;10.074;2022-09-21T03:01:31;3.20;;;2.43;;
18503;SDS011;9381;54.244;10.074;2022-09-21T03:06:32;8.17;;;2.97;;
18503;SDS011;9381;54.244;10.074;2022-09-21T03:11:33;3.20;;;2.70;;
18503;SDS011;9381;54.244;10.074;2022-09-21T03:16:35;3.27;;;2.73;;
18503;SDS011;9381;54.244;10.074;2022-09-21T03:21:36;3.23;;;2.93;;
18503;SDS011;9381;54.244;10.074;2022-09-21T03:26:37;3.20;;;2.50;;
18503;SDS011;9381;54.244;10.074;2022-09-21T03:31:38;4.27;;;3.20;;
18503;SDS011;9381;54.244;10.074;2022-09-21T03:36:38;3.67;;;3.17;;
18503;SDS011;9381;54.244;10.074;2022-09-21T03:41:39;4.27;;;3.37;;
18503;SDS011;9381;54.244;10.074;2022-09-21T03:46:39;4.57;;;3.17;;
18503;SDS011;9381;54.244;10.074;2022-09-21T03:51:39;5.00;;;2.92;;
18503;SDS011;9381;54.244;10.074;2022-09-21T03:56:39;4.93;;;3.50;;
18503;SDS011;9381;54.244;10.074;2022-09-21T04:01:40;4.28;;;3.22;;
18503;SDS011;9381;54.244;10.074;2022-09-21T04:06:41;3.33;;;2.90;;
18503;SDS011;9381;54.244;10.074;2022-09-21T04:11:43;3.67;;;3.30;;
18503;SDS011;9381;54.244;10.074;2022-09-21T04:16:45;4.30;;;3.47;;
18503;SDS011;9381;54.244;10.074;2022-09-21T04:21:45;3.63;;;3.30;;
18503;SDS011;9381;54.244;10.074;2022-09-21T04:26:46;4.43;;;3.50;;
18503;SDS011;9381;54.244;10.074;2022-09-21T04:31:46;5.77;;;3.90;;
18503;SDS011;9381;54.244;10.074;2022-09-21T04:36:47;7.57;;;4.10;;
18503;SDS011;9381;54.244;10.074;2022-09-21T04:41:47;5.03;;;3.90;;
18503;SDS011;9381;54.244;10.074;2022-09-21T04:46:47;4.47;;;3.95;;
18503;SDS011;9381;54.244;10.074;2022-09-21T04:51:48;4.07;;;3.40;;
18503;SDS011;9381;54.244;10.074;2022-09-21T04:56:49;3.63;;;3.33;;
18503;SDS011;9381;54.244;10.074;2022-09-21T05:01:49;5.00;;;4.10;;
18503;SDS011;9381;54.244;10.074;2022-09-21T05:06:50;4.55;;;3.97;;
18503;SDS011;9381;54.244;10.074;2022-09-21T05:11:50;4.28;;;3.65;;
18503;SDS011;9381;54.244;10.074;2022-09-21T05:16:50;5.10;;;4.07;;
18503;SDS011;9381;54.244;10.074;2022-09-21T05:21:51;4.38;;;3.97;;
18503;SDS011;9381;54.244;10.074;2022-09-21T05:26:51;4.95;;;4.07;;
18503;SDS011;9381;54.244;10.074;2022-09-21T05:32:05;5.93;;;3.92;;
18503;SDS011;9381;54.244;10.074;2022-09-21T05:42:27;7.57;;;4.70;;
18503;SDS011;9381;54.244;10.074;2022-09-21T05:47:37;6.07;;;4.00;;
18503;SDS011;9381;54.244;10.074;2022-09-21T05:52:47;5.40;;;4.30;;
18503;SDS011;9381;54.244;10.074;2022-09-21T06:08:29;5.77;;;4.63;;
18503;SDS011;9381;54.244;10.074;2022-09-21T06:13:29;5.63;;;4.60;;
18503;SDS011;9381;54.244;10.074;2022-09-21T06:18:29;7.00;;;5.33;;
18503;SDS011;9381;54.244;10.074;2022-09-21T06:23:30;5.75;;;4.53;;
18503;SDS011;9381;54.244;10.074;2022-09-21T06:28:30;5.53;;;4.80;;
18503;SDS011;9381;54.244;10.074;2022-09-21T06:33:31;5.80;;;4.13;;
18503;SDS011;9381;54.244;10.074;2022-09-21T06:38:31;6.13;;;3.95;;
18503;SDS011;9381;54.244;10.074;2022-09-21T06:43:34;3.63;;;3.13;;
18503;SDS011;9381;54.244;10.074;2022-09-21T06:48:34;7.53;;;5.00;;
18503;SDS011;9381;54.244;10.074;2022-09-21T06:53:35;5.57;;;4.80;;
18503;SDS011;9381;54.244;10.074;2022-09-21T06:58:35;5.00;;;4.20;;
18503;SDS011;9381;54.244;10.074;2022-09-21T07:03:37;7.30;;;4.03;;
18503;SDS011;9381;54.244;10.074;2022-09-21T07:08:38;4.37;;;3.37;;
18503;SDS011;9381;54.244;10.074;2022-09-21T07:13:39;3.97;;;3.30;;
18503;SDS011;9381;54.244;10.074;2022-09-21T07:18:41;4.60;;;3.50;;
18503;SDS011;9381;54.244;10.074;2022-09-21T07:23:41;5.63;;;3.50;;
18503;SDS011;9381;54.244;10.074;2022-09-21T07:28:42;4.70;;;4.00;;
18503;SDS011;9381;54.244;10.074;2022-09-21T07:33:43;5.20;;;4.67;;
18503;SDS011;9381;54.244;10.074;2022-09-21T07:38:46;4.27;;;3.70;;
18503;SDS011;9381;54.244;10.074;2022-09-21T07:43:46;4.30;;;2.57;;
18503;SDS011;9381;54.244;10.074;2022-09-21T07:48:46;3.92;;;2.15;;
18503;SDS011;9381;54.244;10.074;2022-09-21T07:53:47;3.63;;;2.00;;
18503;SDS011;9381;54.244;10.074;2022-09-21T07:58:47;1.77;;;1.53;;
18503;SDS011;9381;54.244;10.074;2022-09-21T08:04:06;1.50;;;1.20;;
18503;SDS011;9381;54.244;10.074;2022-09-21T08:09:08;4.63;;;1.10;;
18503;SDS011;9381;54.244;10.074;2022-09-21T08:14:08;2.40;;;1.17;;
18503;SDS011;9381;54.244;10.074;2022-09-21T08:19:09;3.13;;;1.37;;
18503;SDS011;9381;54.244;10.074;2022-09-21T08:24:09;1.10;;;1.00;;
18503;SDS011;9381;54.244;10.074;2022-09-21T08:29:10;3.15;;;1.02;;
18503;SDS011;9381;54.244;10.074;2022-09-21T08:34:12;1.40;;;1.20;;
18503;SDS011;9381;54.244;10.074;2022-09-21T08:39:13;1.65;;;1.00;;
18503;SDS011;9381;54.244;10.074;2022-09-21T08:49:25;3.03;;;1.07;;
18503;SDS011;9381;54.244;10.074;2022-09-21T09:00:06;1.20;;;0.77;;
18503;SDS011;9381;54.244;10.074;2022-09-21T09:16:03;0.70;;;0.70;;
18503;SDS011;9381;54.244;10.074;2022-09-21T09:21:12;2.50;;;0.60;;
18503;SDS011;9381;54.244;10.074;2022-09-21T09:26:21;1.80;;;0.70;;
18503;SDS011;9381;54.244;10.074;2022-09-21T09:31:30;1.30;;;0.70;;
18503;SDS011;9381;54.244;10.074;2022-09-21T09:36:32;0.60;;;0.50;;
18503;SDS011;9381;54.244;10.074;2022-09-21T09:41:55;1.83;;;0.53;;
18503;SDS011;9381;54.244;10.074;2022-09-21T09:47:23;1.03;;;0.67;;
18503;SDS011;9381;54.244;10.074;2022-09-21T09:52:49;1.03;;;0.70;;
18503;SDS011;9381;54.244;10.074;2022-09-21T09:57:53;2.33;;;0.70;;
18503;SDS011;9381;54.244;10.074;2022-09-21T10:02:56;0.80;;;0.60;;
18503;SDS011;9381;54.244;10.074;2022-09-21T10:07:57;2.47;;;0.50;;
18503;SDS011;9381;54.244;10.074;2022-09-21T10:13:03;3.27;;;0.60;;
18503;SDS011;9381;54.244;10.074;2022-09-21T10:18:21;0.93;;;0.47;;
18503;SDS011;9381;54.244;10.074;2022-09-21T10:23:24;1.67;;;0.33;;
18503;SDS011;9381;54.244;10.074;2022-09-21T10:28:25;0.90;;;0.40;;
18503;SDS011;9381;54.244;10.074;2022-09-21T10:33:27;2.70;;;0.47;;
18503;SDS011;9381;54.244;10.074;2022-09-21T10:38:28;1.40;;;0.77;;
18503;SDS011;9381;54.244;10.074;2022-09-21T10:43:32;0.83;;;0.40;;
18503;SDS011;9381;54.244;10.074;2022-09-21T10:48:35;0.37;;;0.30;;
18503;SDS011;9381;54.244;10.074;2022-09-21T10:53:36;0.37;;;0.20;;
18503;SDS011;9381;54.244;10.074;2022-09-21T10:58:37;0.90;;;0.40;;
18503;SDS011;9381;54.244;10.074;2022-09-21T11:03:45;0.80;;;0.30;;
18503;SDS011;9381;54.244;10.074;2022-09-21T11:09:11;1.47;;;1.17;;
18503;SDS011;9381;54.244;10.074;2022-09-21T11:19:43;1.90;;;0.73;;
18503;SDS011;9381;54.244;10.074;2022-09-21T11:25:14;1.10;;;0.50;;
18503;SDS011;9381;54.244;10.074;2022-09-21T11:30:30;0.70;;;0.43;;
18503;SDS011;9381;54.244;10.074;2022-09-21T11:46:13;0.40;;;0.30;;
18503;SDS011;9381;54.244;10.074;2022-09-21T11:56:59;1.23;;;0.20;;
18503;SDS011;9381;54.244;10.074;2022-09-21T12:28:40;0.93;;;0.40;;
18503;SDS011;9381;54.244;10.074;2022-09-21T12:39:06;0.30;;;0.30;;
18503;SDS011;9381;54.244;10.074;2022-09-21T12:44:31;1.33;;;0.30;;
18503;SDS011;9381;54.244;10.074;2022-09-21T12:49:52;1.70;;;0.30;;
18503;SDS011;9381;54.244;10.074;2022-09-21T13:00:23;1.40;;;0.40;;
18503;SDS011;9381;54.244;10.074;2022-09-21T13:05:37;0.70;;;0.27;;
18503;SDS011;9381;54.244;10.074;2022-09-21T13:11:00;0.40;;;0.40;;
18503;SDS011;9381;54.244;10.074;2022-09-21T13:16:06;0.83;;;0.50;;
18503;SDS011;9381;54.244;10.074;2022-09-21T13:21:24;0.80;;;0.30;;
18503;SDS011;9381;54.244;10.074;2022-09-21T13:26:28;0.50;;;0.40;;
18503;SDS011;9381;54.244;10.074;2022-09-21T13:52:47;0.93;;;0.40;;
18503;SDS011;9381;54.244;10.074;2022-09-21T13:57:52;0.97;;;0.40;;
18503;SDS011;9381;54.244;10.074;2022-09-21T14:02:57;1.10;;;0.50;;
18503;SDS011;9381;54.244;10.074;2022-09-21T14:18:37;1.07;;;0.30;;
18503;SDS011;9381;54.244;10.074;2022-09-21T14:23:38;0.43;;;0.43;;
18503;SDS011;9381;54.244;10.074;2022-09-21T14:28:41;0.50;;;0.50;;
18503;SDS011;9381;54.244;10.074;2022-09-21T14:33:49;0.50;;;0.50;;
18503;SDS011;9381;54.244;10.074;2022-09-21T14:38:54;2.63;;;0.50;;
18503;SDS011;9381;54.244;10.074;2022-09-21T14:43:59;0.57;;;0.43;;
18503;SDS011;9381;54.244;10.074;2022-09-21T15:04:52;0.93;;;0.40;;
18503;SDS011;9381;54.244;10.074;2022-09-21T15:10:13;5.00;;;0.50;;
18503;SDS011;9381;54.244;10.074;2022-09-21T15:15:39;1.00;;;0.60;;
18503;SDS011;9381;54.244;10.074;2022-09-21T15:20:57;0.40;;;0.40;;
18503;SDS011;9381;54.244;10.074;2022-09-21T15:26:03;1.27;;;0.40;;
18503;SDS011;9381;54.244;10.074;2022-09-21T15:31:08;0.60;;;0.60;;
18503;SDS011;9381;54.244;10.074;2022-09-21T15:36:08;0.60;;;0.60;;
18503;SDS011;9381;54.244;10.074;2022-09-21T15:41:08;1.13;;;0.57;;
18503;SDS011;9381;54.244;10.074;2022-09-21T15:46:40;2.07;;;0.67;;
18503;SDS011;9381;54.244;10.074;2022-09-21T15:51:44;1.17;;;0.50;;
18503;SDS011;9381;54.244;10.074;2022-09-21T15:56:45;1.70;;;0.80;;
18503;SDS011;9381;54.244;10.074;2022-09-21T16:01:51;1.23;;;0.70;;
18503;SDS011;9381;54.244;10.074;2022-09-21T16:12:23;1.03;;;0.53;;
18503;SDS011;9381;54.244;10.074;2022-09-21T16:17:40;1.03;;;0.40;;
18503;SDS011;9381;54.244;10.074;2022-09-21T16:23:02;2.60;;;0.90;;
18503;SDS011;9381;54.244;10.074;2022-09-21T16:38:37;0.73;;;0.70;;
18503;SDS011;9381;54.244;10.074;2022-09-21T16:43:38;3.70;;;0.60;;
18503;SDS011;9381;54.244;10.074;2022-09-21T16:48:42;0.50;;;0.50;;
18503;SDS011;9381;54.244;10.074;2022-09-21T16:53:43;0.60;;;0.40;;
18503;SDS011;9381;54.244;10.074;2022-09-21T16:58:44;0.60;;;0.57;;
18503;SDS011;9381;54.244;10.074;2022-09-21T17:03:45;1.97;;;0.60;;
18503;SDS011;9381;54.244;10.074;2022-09-21T17:08:46;2.53;;;0.90;;
18503;SDS011;9381;54.244;10.074;2022-09-21T17:13:48;0.67;;;0.60;;
18503;SDS011;9381;54.244;10.074;2022-09-21T17:18:49;2.03;;;1.00;;
18503;SDS011;9381;54.244;10.074;2022-09-21T17:23:50;2.37;;;1.13;;
18503;SDS011;9381;54.244;10.074;2022-09-21T17:28:50;1.93;;;1.00;;
18503;SDS011;9381;54.244;10.074;2022-09-21T17:33:52;1.13;;;1.00;;
18503;SDS011;9381;54.244;10.074;2022-09-21T17:38:53;1.03;;;0.90;;
18503;SDS011;9381;54.244;10.074;2022-09-21T17:44:13;1.20;;;1.10;;
18503;SDS011;9381;54.244;10.074;2022-09-21T17:49:16;3.43;;;1.60;;
18503;SDS011;9381;54.244;10.074;2022-09-21T17:54:17;9.80;;;6.70;;
18503;SDS011;9381;54.244;10.074;2022-09-21T17:59:31;5.97;;;4.00;;
18503;SDS011;9381;54.244;10.074;2022-09-21T18:04:32;4.93;;;2.83;;
18503;SDS011;9381;54.244;10.074;2022-09-21T18:09:34;4.93;;;3.60;;
18503;SDS011;9381;54.244;10.074;2022-09-21T18:14:45;5.73;;;3.73;;
18503;SDS011;9381;54.244;10.074;2022-09-21T18:25:22;8.90;;;4.47;;
18503;SDS011;9381;54.244;10.074;2022-09-21T18:30:27;4.47;;;4.07;;
18503;SDS011;9381;54.244;10.074;2022-09-21T18:57:24;5.00;;;3.93;;
18503;SDS011;9381;54.244;10.074;2022-09-21T19:02:24;4.63;;;3.53;;
18503;SDS011;9381;54.244;10.074;2022-09-21T19:29:11;3.70;;;2.60;;
18503;SDS011;9381;54.244;10.074;2022-09-21T19:34:22;4.80;;;2.27;;
18503;SDS011;9381;54.244;10.074;2022-09-21T19:39:23;4.20;;;2.37;;
18503;SDS011;9381;54.244;10.074;2022-09-21T19:50:17;5.00;;;2.70;;
18503;SDS011;9381;54.244;10.074;2022-09-21T19:55:21;4.03;;;2.83;;
18503;SDS011;9381;54.244;10.074;2022-09-21T20:00:40;5.50;;;3.00;;
18503;SDS011;9381;54.244;10.074;2022-09-21T20:11:24;5.37;;;2.20;;
18503;SDS011;9381;54.244;10.074;2022-09-21T20:21:47;3.80;;;2.40;;
18503;SDS011;9381;54.244;10.074;2022-09-21T20:26:52;4.70;;;2.73;;
18503;SDS011;9381;54.244;10.074;2022-09-21T20:31:52;10.87;;;3.33;;
18503;SDS011;9381;54.244;10.074;2022-09-21T20:36:53;6.97;;;2.50;;
18503;SDS011;9381;54.244;10.074;2022-09-21T20:41:54;2.63;;;1.90;;
18503;SDS011;9381;54.244;10.074;2022-09-21T20:46:54;5.77;;;2.40;;
18503;SDS011;9381;54.244;10.074;2022-09-21T20:51:55;5.13;;;2.00;;
18503;SDS011;9381;54.244;10.074;2022-09-21T20:56:59;3.93;;;1.33;;
18503;SDS011;9381;54.244;10.074;2022-09-21T21:01:59;2.13;;;1.30;;
18503;SDS011;9381;54.244;10.074;2022-09-21T21:07:00;2.00;;;1.40;;
18503;SDS011;9381;54.244;10.074;2022-09-21T21:12:00;2.33;;;1.73;;
18503;SDS011;9381;54.244;10.074;2022-09-21T21:17:01;3.17;;;1.43;;
18503;SDS011;9381;54.244;10.074;2022-09-21T21:22:01;2.90;;;1.30;;
18503;SDS011;9381;54.244;10.074;2022-09-21T21:27:02;4.47;;;1.40;;
18503;SDS011;9381;54.244;10.074;2022-09-21T21:32:03;5.43;;;1.67;;
18503;SDS011;9381;54.244;10.074;2022-09-21T21:37:04;3.97;;;1.70;;
18503;SDS011;9381;54.244;10.074;2022-09-21T21:42:04;3.53;;;1.50;;
18503;SDS011;9381;54.244;10.074;2022-09-21T21:47:05;2.40;;;1.40;;
18503;SDS011;9381;54.244;10.074;2022-09-21T21:52:05;5.50;;;1.73;;
18503;SDS011;9381;54.244;10.074;2022-09-21T21:57:07;2.43;;;1.70;;
18503;SDS011;9381;54.244;10.074;2022-09-21T22:02:09;4.70;;;1.93;;
18503;SDS011;9381;54.244;10.074;2022-09-21T22:07:09;4.90;;;2.27;;
18503;SDS011;9381;54.244;10.074;2022-09-21T22:12:09;3.77;;;2.20;;
18503;SDS011;9381;54.244;10.074;2022-09-21T22:17:11;6.03;;;2.00;;
18503;SDS011;9381;54.244;10.074;2022-09-21T22:22:11;2.33;;;1.73;;
18503;SDS011;9381;54.244;10.074;2022-09-21T22:27:11;4.45;;;1.77;;
18503;SDS011;9381;54.244;10.074;2022-09-21T22:32:11;4.03;;;2.00;;
18503;SDS011;9381;54.244;10.074;2022-09-21T22:37:12;4.73;;;2.53;;
18503;SDS011;9381;54.244;10.074;2022-09-21T22:42:12;4.63;;;1.70;;
18503;SDS011;9381;54.244;10.074;2022-09-21T22:47:13;3.53;;;2.00;;
18503;SDS011;9381;54.244;10.074;2022-09-21T22:52:13;4.60;;;1.90;;
18503;SDS011;9381;54.244;10.074;2022-09-21T22:57:13;4.97;;;1.63;;
18503;SDS011;9381;54.244;10.074;2022-09-21T23:02:14;4.95;;;1.98;;
18503;SDS011;9381;54.244;10.074;2022-09-21T23:07:14;3.47;;;1.90;;
18503;SDS011;9381;54.244;10.074;2022-09-21T23:12:15;7.40;;;2.20;;
18503;SDS011;9381;54.244;10.074;2022-09-21T23:17:15;2.78;;;1.75;;
18503;SDS011;9381;54.244;10.074;2022-09-21T23:22:15;3.95;;;1.85;;
18503;SDS011;9381;54.244;10.074;2022-09-21T23:27:15;4.95;;;2.38;;
18503;SDS011;9381;54.244;10.074;2022-09-21T23:32:16;3.43;;;2.57;;
18503;SDS011;9381;54.244;10.074;2022-09-21T23:37:16;3.53;;;2.63;;
18503;SDS011;9381;54.244;10.074;2022-09-21T23:42:17;3.53;;;2.50;;
18503;SDS011;9381;54.244;10.074;2022-09-21T23:47:17;3.53;;;2.83;;
18503;SDS011;9381;54.244;10.074;2022-09-21T23:52:18;3.90;;;2.77;;
18503;SDS011;9381;54.244;10.074;2022-09-21T23:57:18;3.13;;;2.70;;
